Time;durP1;ratioP1;P1;durP2;ratioP2;P2;SDS_P1;SDS_P2;PMS_P1;PMS_P2;Temp;Humidity;BMP_temperature;BMP_pressure;BME280_temperature;BME280_humidity;BME280_pressure;Samples;Min_cycle;Max_cycle;Signal;HPM_P1;HPM_P2
2021/06/09 00:01:08;;;;;;;2.57;2.37;;;14.70;72.60;;;;;;5013301;28;20549;-88
2021/06/09 00:03:34;;;;;;;4.83;3.00;;;14.70;72.90;;;;;;5014895;28;20220;-88
2021/06/09 00:06:00;;;;;;;3.20;2.47;;;14.70;76.60;;;;;;5014013;28;20216;-87
2021/06/09 00:08:25;;;;;;;6.33;2.40;;;14.60;76.10;;;;;;5014124;28;20174;-86
2021/06/09 00:10:55;;;;;;;8.67;3.27;;;14.60;75.80;;;;;;5013065;28;20180;-85
2021/06/09 00:13:27;;;;;;;9.00;2.50;;;14.60;75.70;;;;;;5014127;28;20743;-86
2021/06/09 00:15:54;;;;;;;2.97;2.60;;;14.60;75.40;;;;;;5012986;28;20196;-86
2021/06/09 00:18:19;;;;;;;3.03;2.17;;;14.60;75.10;;;;;;5013983;28;20169;-86
2021/06/09 00:20:45;;;;;;;6.30;2.40;;;14.60;75.20;;;;;;5014182;28;20197;-85
2021/06/09 00:23:16;;;;;;;4.37;2.50;;;14.50;75.30;;;;;;5014045;28;20189;-86
2021/06/09 00:25:47;;;;;;;2.87;2.50;;;14.50;75.40;;;;;;5012718;28;20166;-86
2021/06/09 00:28:13;;;;;;;4.03;2.60;;;14.40;75.60;;;;;;5013774;28;20146;-86
2021/06/09 00:30:39;;;;;;;5.87;2.73;;;14.40;75.80;;;;;;5013790;28;20173;-86
2021/06/09 00:33:04;;;;;;;4.33;2.87;;;14.30;75.70;;;;;;5012529;28;20197;-86
2021/06/09 00:35:30;;;;;;;6.27;3.10;;;14.30;75.80;;;;;;5013931;28;20231;-86
2021/06/09 00:37:57;;;;;;;3.23;2.93;;;14.30;75.70;;;;;;5013873;28;20181;-87
2021/06/09 00:40:23;;;;;;;7.60;3.07;;;14.30;75.70;;;;;;5028990;28;20208;-87
2021/06/09 00:43:02;;;;;;;3.47;3.17;;;14.20;75.60;;;;;;5012445;28;20197;-86
2021/06/09 00:45:28;;;;;;;3.73;3.37;;;14.20;75.50;;;;;;5013608;28;20177;-86
2021/06/09 00:47:54;;;;;;;3.93;3.53;;;14.20;75.40;;;;;;5013752;28;20540;-86
2021/06/09 00:50:20;;;;;;;5.40;4.13;;;14.20;75.30;;;;;;5013689;28;20261;-87
2021/06/09 00:52:45;;;;;;;5.93;4.10;;;14.10;75.20;;;;;;5013445;28;20173;-86
2021/06/09 00:55:12;;;;;;;6.30;4.43;;;14.10;75.10;;;;;;5012317;28;20177;-86
2021/06/09 00:57:39;;;;;;;4.50;3.80;;;14.00;75.20;;;;;;5013430;28;20261;-86
2021/06/09 01:00:10;;;;;;;5.47;4.50;;;14.00;75.10;;;;;;5012145;28;20205;-86
2021/06/09 01:02:36;;;;;;;6.97;4.13;;;14.00;75.10;;;;;;5012014;28;20170;-86
2021/06/09 01:05:04;;;;;;;6.57;4.50;;;13.90;75.20;;;;;;5013441;28;20625;-86
2021/06/09 01:07:29;;;;;;;5.57;4.67;;;13.90;75.40;;;;;;5012171;28;20169;-86
2021/06/09 01:09:55;;;;;;;6.07;5.47;;;13.80;75.50;;;;;;5013387;28;20252;-87
2021/06/09 01:12:22;;;;;;;5.50;4.67;;;13.80;75.60;;;;;;5013657;28;20654;-86
2021/06/09 01:14:48;;;;;;;7.53;4.77;;;13.80;75.60;;;;;;5017324;28;20201;-86
2021/06/09 01:17:13;;;;;;;7.87;5.10;;;13.80;75.60;;;;;;5017477;28;20545;-86
2021/06/09 01:19:39;;;;;;;7.70;4.60;;;13.80;75.70;;;;;;5032498;28;20545;-87
2021/06/09 01:22:05;;;;;;;9.27;5.47;;;13.70;75.90;;;;;;5016082;28;20169;-86
2021/06/09 01:24:31;;;;;;;5.03;4.50;;;13.70;75.80;;;;;;5017175;28;20201;-86
2021/06/09 01:26:57;;;;;;;6.03;5.37;;;13.60;75.90;;;;;;5017106;28;20169;-86
2021/06/09 01:29:23;;;;;;;6.07;4.70;;;13.60;75.90;;;;;;5017350;28;20170;-87
2021/06/09 01:31:48;;;;;;;5.63;5.03;;;13.60;75.90;;;;;;5017045;28;20173;-86
2021/06/09 01:34:15;;;;;;;8.53;4.93;;;13.50;76.00;;;;;;5016808;28;20707;-86
2021/06/09 01:36:42;;;;;;;7.60;4.53;;;13.50;75.90;;;;;;5016840;28;20657;-86
2021/06/09 01:39:17;;;;;;;8.23;5.23;;;13.50;75.90;;;;;;5015776;28;20181;-86
2021/06/09 01:41:46;;;;;;;5.20;4.77;;;13.50;75.90;;;;;;5032033;28;20192;-86
2021/06/09 01:44:12;;;;;;;8.07;5.47;;;13.50;75.90;;;;;;5015543;28;20559;-86
2021/06/09 01:46:38;;;;;;;6.37;4.77;;;13.40;76.00;;;;;;5031855;28;20176;-86
2021/06/09 01:49:10;;;;;;;6.83;4.47;;;13.30;76.10;;;;;;5016794;28;20581;-86
2021/06/09 01:51:36;;;;;;;6.13;4.47;;;13.40;76.20;;;;;;5015392;28;20245;-86
2021/06/09 01:54:07;;;;;;;4.83;4.43;;;13.30;76.40;;;;;;5016516;28;20193;-86
2021/06/09 01:56:33;;;;;;;8.80;4.13;;;13.30;76.50;;;;;;5015217;28;20181;-86
2021/06/09 01:59:16;;;;;;;5.17;4.10;;;13.30;76.80;;;;;;5031823;28;20189;-86
2021/06/09 02:01:44;;;;;;;5.07;3.83;;;13.30;76.90;;;;;;5016734;28;20193;-86
2021/06/09 02:04:11;;;;;;;4.83;4.40;;;13.20;77.60;;;;;;5016300;28;20220;-86
2021/06/09 02:06:43;;;;;;;5.10;4.20;;;13.20;78.10;;;;;;5016767;28;20173;-86
2021/06/09 02:09:12;;;;;;;5.70;4.73;;;13.20;78.20;;;;;;5017380;28;20170;-86
2021/06/09 02:11:42;;;;;;;4.90;4.40;;;13.10;78.10;;;;;;5016006;28;20178;-86
2021/06/09 02:14:08;;;;;;;4.43;4.03;;;13.10;78.10;;;;;;5016341;28;20729;-86
2021/06/09 02:16:39;;;;;;;4.57;3.87;;;13.10;78.50;;;;;;5016256;28;20170;-86
2021/06/09 02:19:06;;;;;;;6.07;4.43;;;13.00;78.60;;;;;;5015043;28;20252;-86
2021/06/09 02:21:39;;;;;;;6.67;3.97;;;13.00;78.60;;;;;;5014745;28;20205;-86
2021/06/09 02:24:06;;;;;;;3.90;3.53;;;13.00;78.50;;;;;;5014446;28;20567;-86
2021/06/09 02:26:32;;;;;;;7.73;4.07;;;13.00;78.90;;;;;;5015756;28;20170;-86
2021/06/09 02:29:00;;;;;;;6.77;4.57;;;12.90;79.90;;;;;;5014825;28;20177;-86
2021/06/09 02:31:26;;;;;;;6.43;3.83;;;12.80;79.90;;;;;;5014629;28;20180;-86
2021/06/09 02:33:53;;;;;;;5.13;4.53;;;12.80;80.50;;;;;;5015920;28;20193;-86
2021/06/09 02:36:19;;;;;;;7.07;5.30;;;12.80;81.60;;;;;;5015936;28;20173;-86
2021/06/09 02:38:45;;;;;;;5.77;5.17;;;12.50;82.30;;;;;;5030922;28;20173;-86
2021/06/09 02:41:11;;;;;;;11.10;5.23;;;12.30;83.30;;;;;;5015930;28;20197;-87
2021/06/09 02:43:37;;;;;;;6.07;4.67;;;12.20;84.20;;;;;;5014459;28;20220;-88
2021/06/09 02:46:27;;;;;;;14.77;4.50;;;12.10;84.30;;;;;;5015058;28;20180;-88
2021/06/09 02:48:58;;;;;;;6.43;5.03;;;11.90;84.40;;;;;;5016404;28;20166;-86
2021/06/09 02:51:27;;;;;;;9.23;4.73;;;11.90;84.70;;;;;;5016143;28;20153;-87
2021/06/09 02:54:09;;;;;;;6.20;4.20;;;11.90;84.80;;;;;;5014362;28;20208;-87
2021/06/09 02:56:46;;;;;;;7.93;4.80;;;11.80;85.10;;;;;;5014380;28;20169;-88
2021/06/09 02:59:25;;;;;;;6.90;4.17;;;11.80;85.20;;;;;;5014594;28;20177;-87
2021/06/09 03:02:29;;;;;;;10.57;4.43;;;11.80;85.40;;;;;;5031036;28;20251;-87
2021/06/09 03:05:01;;;;;;;14.67;4.30;;;12.00;85.40;;;;;;4936154;29;20252;-87
2021/06/09 03:07:32;;;;;;;12.00;4.17;;;12.20;85.30;;;;;;4936422;29;20196;-87
2021/06/09 03:10:10;;;;;;;7.73;3.93;;;12.20;84.60;;;;;;4979421;28;20185;-86
2021/06/09 03:12:44;;;;;;;10.47;4.00;;;12.30;84.50;;;;;;5014485;28;20257;-88
2021/06/09 03:15:32;;;;;;;9.87;4.47;;;12.40;84.40;;;;;;5015785;28;20154;-87
2021/06/09 03:18:05;;;;;;;5.97;4.13;;;12.70;83.90;;;;;;5015526;28;20166;-88
2021/06/09 03:20:52;;;;;;;8.13;3.67;;;12.80;82.80;;;;;;5014184;28;20530;-88
2021/06/09 03:23:32;;;;;;;5.27;4.07;;;12.90;82.10;;;;;;5014298;28;20296;-87
2021/06/09 03:26:14;;;;;;;7.50;4.20;;;13.10;81.70;;;;;;5015288;28;20214;-88
2021/06/09 03:28:58;;;;;;;10.80;4.37;;;13.00;81.80;;;;;;5014126;28;20165;-88
2021/06/09 03:31:29;;;;;;;9.47;4.60;;;12.80;82.50;;;;;;5015186;28;20189;-88
2021/06/09 03:33:56;;;;;;;11.87;4.77;;;12.50;83.10;;;;;;5013965;28;20567;-87
2021/06/09 03:36:29;;;;;;;7.97;4.70;;;12.30;83.90;;;;;;5012735;28;20189;-87
2021/06/09 03:39:09;;;;;;;7.47;5.13;;;12.30;84.70;;;;;;5013614;28;20166;-87
2021/06/09 03:41:42;;;;;;;12.43;4.93;;;12.30;85.10;;;;;;5013531;28;20276;-87
2021/06/09 03:44:10;;;;;;;8.90;4.93;;;12.30;85.40;;;;;;5013670;28;20288;-87
2021/06/09 03:46:38;;;;;;;12.33;5.87;;;12.50;85.30;;;;;;5014643;28;20232;-87
2021/06/09 03:49:09;;;;;;;8.40;5.00;;;12.70;85.00;;;;;;5014771;28;20173;-87
2021/06/09 03:51:38;;;;;;;18.37;5.17;;;12.80;84.80;;;;;;5013372;28;20252;-87
2021/06/09 03:54:06;;;;;;;5.07;4.57;;;13.20;84.40;;;;;;5013124;28;20276;-87
2021/06/09 03:56:33;;;;;;;10.33;4.90;;;13.40;83.70;;;;;;5029986;28;20585;-87
2021/06/09 03:59:00;;;;;;;10.17;6.03;;;13.30;83.40;;;;;;5013575;28;20184;-88
2021/06/09 04:01:35;;;;;;;8.57;5.13;;;13.20;83.80;;;;;;5014151;28;20177;-87
2021/06/09 04:04:04;;;;;;;17.27;5.30;;;13.20;84.50;;;;;;5014201;28;20216;-87
2021/06/09 04:06:32;;;;;;;13.70;5.33;;;13.20;84.70;;;;;;5013183;28;20192;-87
2021/06/09 04:09:01;;;;;;;10.40;6.10;;;13.30;84.90;;;;;;5013296;28;20185;-87
2021/06/09 04:11:28;;;;;;;15.43;5.53;;;13.40;85.10;;;;;;5012991;28;20205;-87
2021/06/09 04:13:55;;;;;;;13.40;6.30;;;13.50;85.10;;;;;;5013074;28;20240;-87
2021/06/09 04:16:25;;;;;;;9.83;5.43;;;13.60;85.10;;;;;;5014126;28;20178;-87
2021/06/09 04:18:52;;;;;;;12.00;5.53;;;13.60;85.10;;;;;;5029577;28;20174;-88
2021/06/09 04:21:19;;;;;;;10.40;5.67;;;13.70;85.00;;;;;;5013070;28;20704;-87
2021/06/09 04:23:45;;;;;;;11.70;5.43;;;13.90;84.70;;;;;;5014223;28;20224;-87
2021/06/09 04:26:16;;;;;;;9.30;4.87;;;14.00;84.10;;;;;;5012802;28;20181;-87
2021/06/09 04:28:46;;;;;;;10.13;5.30;;;14.00;83.50;;;;;;5014172;28;20593;-87
2021/06/09 04:31:16;;;;;;;7.33;5.57;;;14.00;83.20;;;;;;5013887;28;20209;-87
2021/06/09 04:33:45;;;;;;;6.20;5.50;;;14.10;83.60;;;;;;5013961;28;20272;-87
2021/06/09 04:36:12;;;;;;;8.83;5.90;;;14.00;83.80;;;;;;5012547;28;20200;-86
2021/06/09 04:38:39;;;;;;;8.60;5.37;;;14.10;84.10;;;;;;5012607;28;20231;-87
2021/06/09 04:41:05;;;;;;;9.77;5.30;;;14.10;84.10;;;;;;5013701;28;20587;-86
2021/06/09 04:43:31;;;;;;;12.23;5.33;;;14.10;83.70;;;;;;5012464;28;20205;-86
2021/06/09 04:45:56;;;;;;;8.90;4.60;;;14.20;83.40;;;;;;5013622;28;20227;-86
2021/06/09 04:48:22;;;;;;;8.17;4.90;;;14.30;82.80;;;;;;5012242;28;20275;-86
2021/06/09 04:50:49;;;;;;;12.17;5.13;;;14.30;82.60;;;;;;5013584;28;20206;-86
2021/06/09 04:53:16;;;;;;;7.57;5.23;;;14.30;82.40;;;;;;5012288;28;20773;-86
2021/06/09 04:55:44;;;;;;;8.60;5.50;;;14.40;82.20;;;;;;5013602;28;20700;-87
2021/06/09 04:58:11;;;;;;;13.37;6.00;;;14.40;83.40;;;;;;5013495;28;20208;-87
2021/06/09 05:00:37;;;;;;;12.33;6.03;;;14.40;83.80;;;;;;5012296;28;20188;-87
2021/06/09 05:03:03;;;;;;;6.50;5.20;;;14.50;84.00;;;;;;5012053;28;20231;-86
2021/06/09 05:05:29;;;;;;;6.87;5.10;;;14.50;83.90;;;;;;5137483;22;20232;-84
2021/06/09 05:07:55;;;;;;;13.57;5.50;;;14.60;83.50;;;;;;5052898;28;20190;-85
2021/06/09 05:10:21;;;;;;;7.63;5.13;;;14.70;83.20;;;;;;5052861;28;20238;-84
2021/06/09 05:12:54;;;;;;;6.70;5.30;;;14.70;82.90;;;;;;5052948;28;20160;-84
2021/06/09 05:15:24;;;;;;;9.13;5.87;;;14.80;82.70;;;;;;5051621;28;20192;-85
2021/06/09 05:17:50;;;;;;;8.80;5.30;;;14.90;83.20;;;;;;5053003;28;20733;-85
2021/06/09 05:20:37;;;;;;;7.87;6.37;;;15.00;83.50;;;;;;5052850;28;20180;-85
2021/06/09 05:23:09;;;;;;;8.20;5.97;;;15.10;83.70;;;;;;5051692;28;20249;-85
2021/06/09 05:25:38;;;;;;;6.93;6.17;;;15.20;83.30;;;;;;5052815;28;20646;-85
2021/06/09 05:28:06;;;;;;;6.73;5.83;;;15.40;83.20;;;;;;5051505;28;20190;-85
2021/06/09 05:30:32;;;;;;;8.37;6.00;;;15.50;82.80;;;;;;5052732;28;20188;-85
2021/06/09 05:32:59;;;;;;;8.02;5.45;;;15.70;81.80;;;;;;5051414;28;20173;-85
2021/06/09 05:35:25;;;;;;;6.50;5.90;;;15.90;81.60;;;;;;5052661;28;20223;-85
2021/06/09 05:37:52;;;;;;;7.20;6.03;;;16.00;81.60;;;;;;5052789;28;20173;-84
2021/06/09 05:40:19;;;;;;;5.83;5.33;;;16.20;81.50;;;;;;5051345;28;20237;-85
2021/06/09 05:42:46;;;;;;;11.02;4.57;;;16.40;81.70;;;;;;5052660;28;20613;-85
2021/06/09 05:45:13;;;;;;;5.15;4.70;;;16.50;79.40;;;;;;5051296;28;20203;-85
2021/06/09 05:47:41;;;;;;;6.75;3.95;;;16.70;80.70;;;;;;5052761;28;20604;-85
2021/06/09 05:50:16;;;;;;;4.38;3.90;;;17.00;79.50;;;;;;5051180;28;20196;-85
2021/06/09 05:52:44;;;;;;;4.22;3.80;;;17.10;79.00;;;;;;5052532;28;20174;-85
2021/06/09 05:55:26;;;;;;;5.40;3.70;;;17.20;76.90;;;;;;5051216;28;20196;-84
2021/06/09 05:57:53;;;;;;;11.20;3.78;;;17.40;77.60;;;;;;5052551;28;20571;-85
2021/06/09 06:00:22;;;;;;;9.43;3.60;;;17.40;76.20;;;;;;5054248;28;20184;-85
2021/06/09 06:02:48;;;;;;;4.53;3.28;;;17.50;75.80;;;;;;5056219;28;20164;-85
2021/06/09 06:05:15;;;;;;;3.80;2.88;;;17.70;75.80;;;;;;5054851;28;20560;-85
2021/06/09 06:07:41;;;;;;;4.22;2.97;;;17.70;72.30;;;;;;5055056;28;20207;-85
2021/06/09 06:10:07;;;;;;;4.50;2.97;;;17.80;73.50;;;;;;5054629;28;20286;-85
2021/06/09 06:12:35;;;;;;;5.90;2.60;;;18.00;75.10;;;;;;5055847;28;20299;-85
2021/06/09 06:15:02;;;;;;;2.20;2.00;;;18.10;73.90;;;;;;5054606;28;20241;-85
2021/06/09 06:17:29;;;;;;;3.10;1.80;;;18.20;72.00;;;;;;5054595;28;20176;-84
2021/06/09 06:19:55;;;;;;;2.05;1.85;;;18.10;70.70;;;;;;5054605;28;20178;-85
2021/06/09 06:22:20;;;;;;;1.75;1.65;;;18.10;67.50;;;;;;5054450;28;20168;-85
2021/06/09 06:24:48;;;;;;;2.60;1.80;;;18.10;68.60;;;;;;5054447;28;20223;-85
2021/06/09 06:27:15;;;;;;;1.77;1.67;;;18.20;68.90;;;;;;5055680;28;20173;-85
2021/06/09 06:29:43;;;;;;;2.22;1.67;;;18.20;66.90;;;;;;5054326;28;20203;-84
2021/06/09 06:32:12;;;;;;;4.72;1.70;;;18.20;67.50;;;;;;5054318;28;20179;-85
2021/06/09 06:34:48;;;;;;;8.85;1.70;;;18.30;68.90;;;;;;5054276;28;20223;-85
2021/06/09 06:37:15;;;;;;;2.22;1.80;;;18.30;67.20;;;;;;5054266;28;20167;-85
2021/06/09 06:39:41;;;;;;;3.00;1.95;;;18.30;66.90;;;;;;5054224;28;20180;-85
2021/06/09 06:42:07;;;;;;;2.20;1.70;;;18.40;66.50;;;;;;5054172;28;20176;-86
2021/06/09 06:44:35;;;;;;;3.70;1.52;;;18.40;65.40;;;;;;5055313;28;20221;-85
2021/06/09 06:47:02;;;;;;;2.17;1.98;;;18.30;64.90;;;;;;5054006;28;20175;-85
2021/06/09 06:49:29;;;;;;;3.50;1.98;;;18.30;66.00;;;;;;5055260;28;20196;-85
2021/06/09 06:51:56;;;;;;;3.45;1.75;;;18.40;66.20;;;;;;5053853;28;20195;-86
2021/06/09 06:54:23;;;;;;;2.58;1.80;;;18.50;66.50;;;;;;5055198;28;20192;-85
2021/06/09 06:56:50;;;;;;;4.28;1.90;;;18.60;66.70;;;;;;5053784;28;20706;-85
2021/06/09 06:59:16;;;;;;;1.52;1.42;;;18.60;62.70;;;;;;5055043;28;20164;-85
2021/06/09 07:01:42;;;;;;;4.10;2.25;;;18.60;64.90;;;;;;5054992;28;20176;-85
2021/06/09 07:04:08;;;;;;;3.65;1.83;;;18.80;66.10;;;;;;5054939;28;20208;-85
2021/06/09 07:06:35;;;;;;;2.58;1.88;;;19.00;66.90;;;;;;5054899;28;20215;-85
2021/06/09 07:09:02;;;;;;;3.72;2.25;;;18.90;63.70;;;;;;5053616;28;20708;-85
2021/06/09 07:11:28;;;;;;;2.55;1.95;;;18.80;62.90;;;;;;5053274;28;20676;-85
2021/06/09 07:13:57;;;;;;;2.67;2.20;;;18.80;64.00;;;;;;5055153;28;20207;-85
2021/06/09 07:16:29;;;;;;;2.30;1.67;;;18.90;64.10;;;;;;5054705;28;20207;-85
2021/06/09 07:18:56;;;;;;;3.83;1.90;;;19.00;63.90;;;;;;5054745;28;20620;-85
2021/06/09 07:21:23;;;;;;;4.22;1.65;;;19.00;63.40;;;;;;5053389;28;20745;-85
2021/06/09 07:23:49;;;;;;;1.77;1.60;;;19.20;66.50;;;;;;5053232;28;20318;-85
2021/06/09 07:26:16;;;;;;;2.97;2.22;;;19.20;64.60;;;;;;5054545;28;20168;-85
2021/06/09 07:28:46;;;;;;;2.25;2.00;;;19.30;63.90;;;;;;5053246;28;20262;-85
2021/06/09 07:31:18;;;;;;;3.63;1.77;;;19.50;62.30;;;;;;5053066;28;20199;-85
2021/06/09 07:33:47;;;;;;;1.55;1.45;;;19.60;62.20;;;;;;5053154;28;20203;-85
2021/06/09 07:36:15;;;;;;;3.28;1.60;;;19.80;57.60;;;;;;5053106;28;20168;-85
2021/06/09 07:38:46;;;;;;;1.67;1.50;;;20.00;58.70;;;;;;5054292;28;20172;-85
2021/06/09 07:41:14;;;;;;;1.58;1.48;;;20.00;56.50;;;;;;5053094;28;20516;-85
2021/06/09 07:43:42;;;;;;;2.38;1.58;;;19.90;58.00;;;;;;5052932;28;20176;-85
2021/06/09 07:46:12;;;;;;;7.43;1.70;;;19.90;56.70;;;;;;5052904;28;20180;-85
2021/06/09 07:48:40;;;;;;;2.60;1.50;;;19.90;56.10;;;;;;5052912;28;20167;-84
2021/06/09 07:51:11;;;;;;;3.35;1.67;;;20.00;57.10;;;;;;5054027;28;20211;-84
2021/06/09 07:53:38;;;;;;;3.78;1.60;;;20.00;57.90;;;;;;5054007;28;20231;-85
2021/06/09 07:56:06;;;;;;;2.03;1.50;;;20.00;55.40;;;;;;5052750;28;20229;-85
2021/06/09 07:58:33;;;;;;;2.25;1.70;;;20.10;56.70;;;;;;5052791;28;20579;-85
2021/06/09 08:01:00;;;;;;;1.85;1.38;;;20.20;56.90;;;;;;5052634;28;20172;-85
2021/06/09 08:03:28;;;;;;;2.38;1.40;;;20.30;55.00;;;;;;5053724;28;20172;-85
2021/06/09 08:05:57;;;;;;;2.42;1.80;;;20.30;54.30;;;;;;5052702;28;20223;-85
2021/06/09 08:08:24;;;;;;;5.60;1.58;;;20.60;54.90;;;;;;5053763;28;20179;-85
2021/06/09 08:10:50;;;;;;;2.75;1.95;;;20.60;55.70;;;;;;5053671;28;20271;-85
2021/06/09 08:13:16;;;;;;;3.63;2.10;;;20.70;54.70;;;;;;5053720;28;20226;-85
2021/06/09 08:15:42;;;;;;;2.42;1.70;;;20.70;55.30;;;;;;5052307;28;20682;-85
2021/06/09 08:18:09;;;;;;;3.78;1.55;;;20.70;55.30;;;;;;5052303;28;20178;-85
2021/06/09 08:21:06;;;;;;;3.47;1.60;;;20.90;54.80;;;;;;5052279;28;20705;-85
2021/06/09 08:23:33;;;;;;;3.45;1.67;;;21.10;57.40;;;;;;5040604;28;20702;-85
2021/06/09 08:25:59;;;;;;;2.05;1.90;;;21.20;56.20;;;;;;5053873;28;20513;-84
2021/06/09 08:28:25;;;;;;;4.72;1.73;;;21.20;55.10;;;;;;5052207;28;20294;-85
2021/06/09 08:30:50;;;;;;;4.95;1.90;;;21.40;55.40;;;;;;5052099;28;20245;-85
2021/06/09 08:33:16;;;;;;;2.90;1.70;;;21.60;53.70;;;;;;5053883;28;20247;-87
2021/06/09 08:35:42;;;;;;;3.22;1.63;;;21.80;55.70;;;;;;5053344;28;20258;-87
2021/06/09 08:38:07;;;;;;;3.35;1.80;;;22.00;55.10;;;;;;5053466;28;20247;-87
2021/06/09 08:40:33;;;;;;;1.88;1.50;;;21.90;51.30;;;;;;5053340;28;20179;-87
2021/06/09 08:43:01;;;;;;;1.83;1.38;;;21.90;53.30;;;;;;5051989;28;20183;-87
2021/06/09 08:45:26;;;;;;;1.40;1.30;;;22.00;50.90;;;;;;5052575;28;20608;-87
2021/06/09 08:47:52;;;;;;;2.05;1.27;;;22.20;52.90;;;;;;5053239;28;20212;-87
2021/06/09 08:50:19;;;;;;;3.65;1.55;;;22.20;52.00;;;;;;5051882;28;20291;-87
2021/06/09 08:52:52;;;;;;;6.80;4.05;;;22.40;50.70;;;;;;5051938;28;20222;-87
2021/06/09 08:55:19;;;;;;;4.18;2.13;;;22.50;48.10;;;;;;5053116;28;20211;-87
2021/06/09 08:57:45;;;;;;;2.42;1.77;;;22.70;51.40;;;;;;5051983;28;20522;-87
2021/06/09 09:00:15;;;;;;;1.88;1.75;;;22.60;49.30;;;;;;5053373;28;20172;-87
2021/06/09 09:02:40;;;;;;;2.08;1.50;;;22.60;50.00;;;;;;5053137;28;20215;-87
2021/06/09 09:05:08;;;;;;;3.05;1.63;;;22.50;52.00;;;;;;5051733;28;20239;-87
2021/06/09 09:07:34;;;;;;;1.88;0.98;;;22.70;50.00;;;;;;5051800;28;20188;-87
2021/06/09 09:10:01;;;;;;;1.85;1.38;;;22.60;48.60;;;;;;5052437;28;20262;-87
2021/06/09 09:12:26;;;;;;;2.08;1.33;;;22.70;47.90;;;;;;5051792;28;20683;-86
2021/06/09 09:14:52;;;;;;;1.30;1.20;;;22.70;50.10;;;;;;5052910;28;20227;-87
2021/06/09 09:17:18;;;;;;;3.63;1.23;;;22.90;49.60;;;;;;5052907;28;20176;-87
2021/06/09 09:19:46;;;;;;;2.05;1.30;;;23.10;48.50;;;;;;5051689;28;20222;-86
2021/06/09 09:22:30;;;;;;;1.05;1.00;;;23.20;47.10;;;;;;5052958;28;20168;-88
2021/06/09 09:24:56;;;;;;;1.77;1.00;;;23.40;50.10;;;;;;5053275;28;20278;-88
2021/06/09 09:27:29;;;;;;;1.30;1.20;;;23.50;47.10;;;;;;5051703;28;20237;-88
2021/06/09 09:30:08;;;;;;;4.45;1.20;;;23.50;45.80;;;;;;5051703;28;20176;-89
2021/06/09 09:32:36;;;;;;;2.67;1.33;;;23.70;46.60;;;;;;5051703;28;20176;-89
2021/06/09 09:35:14;;;;;;;5.30;1.50;;;23.60;46.40;;;;;;5052756;28;20226;-90
2021/06/09 09:37:40;;;;;;;1.40;1.20;;;23.70;43.80;;;;;;5055677;28;20171;-89
2021/06/09 09:40:18;;;;;;;1.10;1.00;;;23.60;45.30;;;;;;5055423;28;20654;-89
2021/06/09 09:42:48;;;;;;;1.15;1.00;;;23.80;43.80;;;;;;5055542;28;20188;-88
2021/06/09 09:45:13;;;;;;;1.52;1.23;;;23.80;45.00;;;;;;5056630;28;20281;-88
2021/06/09 09:47:39;;;;;;;7.93;1.20;;;23.60;42.00;;;;;;5055352;28;20172;-89
2021/06/09 09:50:05;;;;;;;2.53;1.20;;;23.80;44.80;;;;;;5055495;28;20271;-88
2021/06/09 09:52:47;;;;;;;7.57;5.55;;;24.40;43.90;;;;;;5055261;28;20267;-90
2021/06/09 09:55:12;;;;;;;3.33;2.40;;;24.60;42.50;;;;;;5055260;28;20195;-89
2021/06/09 09:57:39;;;;;;;2.25;1.48;;;24.60;45.30;;;;;;5056921;28;20164;-89
2021/06/09 10:00:07;;;;;;;8.70;2.58;;;24.70;43.10;;;;;;5055293;28;20180;-89
2021/06/09 10:02:33;;;;;;;3.25;1.08;;;24.90;43.50;;;;;;5055126;28;20173;-88
2021/06/09 10:05:13;;;;;;;2.85;1.40;;;25.00;43.40;;;;;;5054990;28;20266;-88
2021/06/09 10:07:59;;;;;;;3.80;1.45;;;25.00;42.50;;;;;;5056440;28;20210;-88
2021/06/09 10:10:26;;;;;;;1.65;1.17;;;24.70;42.30;;;;;;5054565;28;20242;-88
2021/06/09 10:13:13;;;;;;;3.42;1.33;;;24.70;43.00;;;;;;5054935;28;20172;-89
2021/06/09 10:15:47;;;;;;;2.10;1.30;;;24.70;43.60;;;;;;5054827;28;20611;-89
2021/06/09 10:18:24;;;;;;;2.00;1.35;;;24.80;44.10;;;;;;5054776;28;20169;-88
2021/06/09 10:20:49;;;;;;;1.60;1.50;;;24.90;44.90;;;;;;5054768;28;20254;-88
2021/06/09 10:23:37;;;;;;;2.75;1.60;;;25.00;42.50;;;;;;5054743;28;20592;-88
2021/06/09 10:26:08;;;;;;;3.20;1.40;;;25.20;43.30;;;;;;5054626;28;20230;-88
2021/06/09 10:28:57;;;;;;;1.85;1.30;;;25.10;42.50;;;;;;5054528;28;20191;-88
2021/06/09 10:31:34;;;;;;;1.60;1.20;;;25.30;41.90;;;;;;5054481;28;20502;-88
2021/06/09 10:34:01;;;;;;;1.58;1.45;;;25.40;42.20;;;;;;5055707;28;20283;-88
2021/06/09 10:36:26;;;;;;;3.35;1.60;;;26.00;42.40;;;;;;5055956;28;20169;-88
2021/06/09 10:38:53;;;;;;;3.58;1.38;;;26.00;42.40;;;;;;5055615;28;20524;-88
2021/06/09 10:41:22;;;;;;;2.30;1.55;;;26.20;40.70;;;;;;5054401;28;20172;-90
2021/06/09 10:43:51;;;;;;;3.42;1.40;;;25.50;40.40;;;;;;5054251;28;20691;-90
2021/06/09 10:46:26;;;;;;;1.55;1.20;;;25.70;42.90;;;;;;5055066;28;20172;-89
2021/06/09 10:48:59;;;;;;;2.22;1.23;;;25.70;43.20;;;;;;5054610;28;20220;-90
2021/06/09 10:51:26;;;;;;;1.48;1.20;;;25.70;41.90;;;;;;5055450;28;20557;-89
2021/06/09 10:53:52;;;;;;;3.38;1.52;;;26.00;40.30;;;;;;5054102;28;20663;-90
2021/06/09 10:56:19;;;;;;;1.60;1.48;;;26.50;41.20;;;;;;5054195;28;20172;-89
2021/06/09 10:58:46;;;;;;;2.70;1.85;;;26.50;41.40;;;;;;5054100;28;20172;-90
2021/06/09 11:01:13;;;;;;;5.03;2.00;;;26.30;40.60;;;;;;5055141;28;20613;-89
2021/06/09 11:03:46;;;;;;;7.88;2.17;;;26.30;41.80;;;;;;5053969;28;20172;-90
2021/06/09 11:06:12;;;;;;;2.75;1.92;;;26.30;39.80;;;;;;5054119;28;20203;-90
2021/06/09 11:08:38;;;;;;;2.05;1.77;;;26.50;41.80;;;;;;5054431;28;20246;-89
2021/06/09 11:11:17;;;;;;;2.60;2.10;;;26.60;40.10;;;;;;5053876;28;20639;-89
2021/06/09 11:25:11;;;;;;;3.75;2.45;;;26.40;41.30;;;;;;5134697;27;20533;-91
2021/06/09 11:27:48;;;;;;;6.57;2.28;;;26.30;39.90;;;;;;5127335;28;20166;-91
2021/06/09 11:30:23;;;;;;;2.80;2.17;;;26.20;41.10;;;;;;5110229;28;20154;-92
2021/06/09 11:32:49;;;;;;;2.30;2.10;;;26.50;42.90;;;;;;5110024;28;20178;-90
2021/06/09 11:35:15;;;;;;;2.53;2.33;;;26.80;41.90;;;;;;5111075;28;20229;-90
2021/06/09 11:38:02;;;;;;;2.92;1.90;;;27.40;41.10;;;;;;5111280;28;20645;-89
2021/06/09 11:40:45;;;;;;;3.70;2.30;;;27.70;38.70;;;;;;5109612;28;20174;-89
2021/06/09 11:43:22;;;;;;;6.15;2.50;;;27.50;39.60;;;;;;5110275;28;20158;-90
2021/06/09 11:46:03;;;;;;;3.10;2.42;;;27.70;40.60;;;;;;5111136;28;20154;-89
2021/06/09 11:48:31;;;;;;;6.45;2.40;;;27.20;39.10;;;;;;5109759;28;20162;-89
2021/06/09 11:51:17;;;;;;;3.60;2.38;;;26.90;40.50;;;;;;5110875;28;20166;-89
2021/06/09 11:53:47;;;;;;;3.17;2.88;;;26.90;41.00;;;;;;5110599;28;20289;-89
2021/06/09 11:56:19;;;;;;;4.88;2.63;;;27.10;40.90;;;;;;5110818;28;20166;-90
2021/06/09 11:58:47;;;;;;;2.53;2.30;;;27.20;42.20;;;;;;5110757;28;20592;-89
2021/06/09 12:01:15;;;;;;;6.97;2.78;;;27.20;42.70;;;;;;5109447;28;20208;-90
2021/06/09 12:03:41;;;;;;;2.47;2.28;;;27.40;43.80;;;;;;5109383;28;20201;-89
2021/06/09 12:06:25;;;;;;;4.20;2.97;;;27.30;42.50;;;;;;5110674;28;20196;-89
2021/06/09 12:08:51;;;;;;;2.90;2.70;;;27.10;41.40;;;;;;5110521;28;20158;-89
2021/06/09 12:11:17;;;;;;;7.03;2.33;;;26.80;43.40;;;;;;5110142;28;20182;-89
2021/06/09 12:13:44;;;;;;;3.03;2.50;;;27.00;43.80;;;;;;5110379;28;20232;-89
2021/06/09 12:16:17;;;;;;;4.43;2.78;;;27.30;42.60;;;;;;5110417;28;20170;-89
2021/06/09 12:18:47;;;;;;;3.35;2.85;;;27.70;43.00;;;;;;5109089;28;20170;-89
2021/06/09 12:21:16;;;;;;;2.70;2.50;;;28.00;41.30;;;;;;5110309;28;20177;-89
2021/06/09 12:23:59;;;;;;;3.00;2.70;;;27.70;42.50;;;;;;5108989;28;20561;-89
2021/06/09 12:26:26;;;;;;;2.83;2.47;;;27.70;44.90;;;;;;5109081;28;20171;-89
2021/06/09 12:29:05;;;;;;;5.85;2.78;;;28.10;43.10;;;;;;5110132;28;20193;-89
2021/06/09 12:31:35;;;;;;;4.15;3.75;;;28.50;42.40;;;;;;5109077;28;20245;-89
2021/06/09 12:34:01;;;;;;;5.55;3.88;;;28.10;43.20;;;;;;5108959;28;20210;-89
2021/06/09 12:36:27;;;;;;;4.65;3.65;;;28.40;41.20;;;;;;5095113;28;20182;-89
2021/06/09 12:38:53;;;;;;;9.80;4.00;;;28.60;42.60;;;;;;5095233;28;20703;-89
2021/06/09 12:41:31;;;;;;;5.95;3.80;;;28.70;39.30;;;;;;5095298;28;20174;-89
2021/06/09 12:44:12;;;;;;;5.00;3.67;;;28.70;39.90;;;;;;5096425;28;20182;-90
2021/06/09 12:46:38;;;;;;;7.38;3.63;;;28.50;42.80;;;;;;5095203;28;20654;-90
2021/06/09 12:49:03;;;;;;;4.95;4.32;;;28.80;43.20;;;;;;5095245;28;20198;-90
2021/06/09 12:51:29;;;;;;;5.63;3.80;;;29.00;41.30;;;;;;5096318;28;20547;-89
2021/06/09 12:53:55;;;;;;;4.13;3.03;;;28.90;42.90;;;;;;5094856;28;20214;-90
2021/06/09 12:56:21;;;;;;;4.97;3.30;;;29.10;42.30;;;;;;5096378;28;20266;-91
2021/06/09 12:58:50;;;;;;;4.82;4.25;;;29.20;42.80;;;;;;5094870;28;20583;-89
2021/06/09 13:01:15;;;;;;;5.78;4.35;;;29.00;43.30;;;;;;5094691;28;20178;-89
2021/06/09 13:03:48;;;;;;;5.07;4.22;;;29.00;43.30;;;;;;5095989;28;20171;-90
2021/06/09 13:06:22;;;;;;;5.00;3.75;;;29.20;41.00;;;;;;5096045;28;20167;-90
2021/06/09 13:08:55;;;;;;;6.82;4.20;;;29.40;40.90;;;;;;5096106;28;20167;-90